EmailTwitter


Observations de surface / France / LFBP (07610)

Régions: Québec | Canada | États-Unis | Europe | France | UK | Ailleurs
Station
Affichage
Infos & localisation pour LFBP (07610) | Aide pour décoder les METARs

Observations prises le 2018-08-17 à 01H30 UTC à PONT-LONG-UZEIN/, FR (LFBP)

Etat du ciel: couvert.

Température: 19.0 Celsius

Point de rosée: 17.0 Celsius

Humidité relative: 88%

Indice Humidex: 24.

Vents: Ouest à 7 km/h ou 4 noeuds.

Pression au niveau moyen de la mer: 101.90 kilopascals.

Visibilité horizontale: 6.21 milles terrestres ou 9.94 kilomètres.

Hauteur du plafond: 1158 mètres ( 3800 pieds ).

Observation METAR:

LFBP 170130Z AUTO 28004KT 9999 SCT017 OVC038 19/17 Q1019 TEMPO BKN013 BKN050=